Hendricks, West Virginia
Current Conditions -  °F | °C
As of 2:51 PM on Thursday 23 Oct 2014 (Local Time) from KEKN Reporting Station
Overcast Overcast  
Wind Chill:   Ceiling: 1700
Heat Index:   Visibility: 10mi
Dew Point:   Wind: 8mph
Humidity: 86%   Direction: 260°W
Pressure: 30.11"   Gusts: NA
Location:  39.08°N, 79.63°W
Report Text: KEKN 231851Z AUTO 26007KT 10SM BKN017 OVC023 08/06 A3011 RMK AO2 SLP205 T00830061 TSNO
Loading
Personal Weather Stations






























Interactive Weather Map
Tropical Storm Tracking
New forecast layout! Learn more

10-Day Weather Forecast

Advertisements
Track Severe Weather on mobile